createdAt,value
2019-06-01T00:01:46.753Z,9.47
2019-06-01T00:03:50.148Z,9.20
2019-06-01T00:05:54.103Z,9.80
2019-06-01T00:07:58.121Z,9.67
2019-06-01T00:10:02.076Z,9.67
2019-06-01T00:12:06.008Z,9.23
2019-06-01T00:14:09.907Z,9.83
2019-06-01T00:16:13.863Z,9.80
2019-06-01T00:18:17.769Z,9.37
2019-06-01T00:20:21.623Z,10.63
2019-06-01T00:22:25.604Z,11.47
2019-06-01T00:24:29.459Z,13.17
2019-06-01T00:26:33.391Z,10.73
2019-06-01T00:28:37.361Z,14.10
2019-06-01T00:30:41.658Z,9.40
2019-06-01T00:32:45.759Z,9.20
2019-06-01T00:34:49.963Z,8.83
2019-06-01T00:36:53.970Z,10.53
2019-06-01T00:38:58.039Z,9.60
2019-06-01T00:41:02.008Z,10.10
2019-06-01T00:43:05.885Z,8.90
2019-06-01T00:45:10.393Z,8.67
2019-06-01T00:47:14.395Z,9.00
2019-06-01T00:49:18.492Z,9.00
2019-06-01T00:51:22.359Z,9.10
2019-06-01T00:53:26.614Z,9.80
2019-06-01T00:55:30.653Z,9.00
2019-06-01T00:57:34.731Z,10.07
2019-06-01T00:59:38.603Z,9.40
2019-06-01T01:01:43.748Z,9.20
2019-06-01T01:03:48.181Z,9.57
2019-06-01T01:05:52.711Z,9.63
2019-06-01T01:07:56.727Z,8.20
2019-06-01T01:10:00.679Z,10.00
2019-06-01T01:12:04.696Z,9.93
2019-06-01T01:14:08.739Z,8.83
2019-06-01T01:16:12.631Z,9.00
2019-06-01T01:18:16.646Z,9.63
2019-06-01T01:20:20.513Z,8.70
2019-06-01T01:22:24.411Z,8.50
2019-06-01T01:24:30.416Z,8.87
2019-06-01T01:26:34.435Z,10.40
2019-06-01T01:28:38.343Z,10.13
2019-06-01T01:30:42.479Z,9.50
2019-06-01T01:32:47.363Z,8.60
2019-06-01T01:34:51.567Z,8.90
2019-06-01T01:36:56.051Z,8.57
2019-06-01T01:39:00.143Z,9.23
2019-06-01T01:41:04.105Z,8.60
2019-06-01T01:43:08.156Z,9.53
2019-06-01T01:45:12.635Z,9.17
2019-06-01T01:47:16.447Z,9.53
2019-06-01T01:49:20.347Z,11.50
2019-06-01T01:51:24.366Z,9.70
2019-06-01T01:53:28.274Z,11.40
2019-06-01T01:55:32.191Z,10.20
2019-06-01T01:57:36.358Z,10.33
2019-06-01T01:59:40.215Z,9.60
2019-06-01T02:01:44.582Z,8.87
2019-06-01T02:03:48.466Z,9.70
2019-06-01T02:05:52.965Z,9.03
2019-06-01T02:07:57.004Z,8.70
2019-06-01T02:10:01.906Z,9.37
2019-06-01T02:12:06.091Z,9.67
2019-06-01T02:14:10.121Z,9.30
2019-06-01T02:16:13.993Z,8.70
2019-06-01T02:18:17.900Z,10.70
2019-06-01T02:20:21.787Z,10.50
2019-06-01T02:22:25.622Z,9.80
2019-06-01T02:24:29.519Z,10.20
2019-06-01T02:26:33.465Z,10.17
2019-06-01T02:28:37.382Z,9.50
2019-06-01T02:30:41.263Z,8.60
2019-06-01T02:32:45.108Z,8.47
2019-06-01T02:34:48.999Z,9.90
2019-06-01T02:36:54.337Z,8.90
2019-06-01T02:38:58.728Z,9.47
2019-06-01T02:41:03.358Z,9.07
2019-06-01T02:43:08.651Z,8.80
2019-06-01T02:45:13.713Z,9.00
2019-06-01T02:47:17.634Z,8.87
2019-06-01T02:49:21.639Z,8.47
2019-06-01T02:51:25.656Z,8.57
2019-06-01T02:53:30.041Z,7.60
2019-06-01T02:55:33.909Z,7.60
2019-06-01T02:57:37.739Z,7.57
2019-06-01T02:59:41.672Z,8.70
2019-06-01T03:01:56.710Z,8.90
2019-06-01T03:03:57.513Z,8.87
2019-06-01T03:06:05.573Z,8.33
2019-06-01T03:08:10.381Z,8.10
2019-06-01T03:10:14.575Z,8.00
2019-06-01T03:12:21.824Z,7.30
2019-06-01T03:14:28.552Z,8.37
2019-06-01T03:16:35.152Z,8.30
2019-06-01T03:18:40.514Z,8.43
2019-06-01T03:20:47.499Z,7.60
2019-06-01T03:22:53.380Z,9.50
2019-06-01T03:25:00.342Z,9.57
2019-06-01T03:27:06.360Z,7.90
2019-06-01T03:29:16.355Z,8.27
2019-06-01T03:31:20.444Z,8.90
2019-06-01T03:33:24.348Z,8.57
2019-06-01T03:35:28.263Z,8.03
2019-06-01T03:37:32.375Z,8.50
2019-06-01T03:39:36.457Z,9.13
2019-06-01T03:41:40.495Z,8.60
2019-06-01T03:43:44.455Z,8.10
2019-06-01T03:45:48.328Z,8.03
2019-06-01T03:47:53.543Z,7.90
2019-06-01T03:49:57.480Z,8.87
2019-06-01T03:52:02.604Z,7.53
2019-06-01T03:54:08.200Z,8.17
2019-06-01T03:56:12.390Z,7.30
2019-06-01T03:58:16.349Z,6.90
2019-06-01T04:00:20.370Z,7.10
2019-06-01T04:02:32.766Z,8.07
2019-06-01T04:04:29.843Z,8.20
2019-06-01T04:06:33.887Z,8.37
2019-06-01T04:08:37.855Z,7.20
2019-06-01T04:10:41.712Z,7.70
2019-06-01T04:12:45.555Z,6.30
2019-06-01T04:14:49.456Z,6.87
2019-06-01T04:16:53.404Z,6.67
2019-06-01T04:18:57.381Z,8.60
2019-06-01T04:21:02.383Z,8.07
2019-06-01T04:23:06.507Z,7.20
2019-06-01T04:25:10.614Z,7.00
2019-06-01T04:27:14.551Z,7.77
2019-06-01T04:29:18.476Z,7.20
2019-06-01T04:31:22.621Z,6.87
2019-06-01T04:33:26.475Z,6.40
2019-06-01T04:35:30.400Z,8.00
2019-06-01T04:37:34.239Z,7.03
2019-06-01T04:39:38.135Z,6.90
2019-06-01T04:41:42.000Z,6.23
2019-06-01T04:43:45.835Z,6.23
2019-06-01T04:45:49.965Z,7.10
2019-06-01T04:47:54.000Z,6.50
2019-06-01T04:49:57.906Z,7.00
2019-06-01T04:52:01.931Z,6.83
2019-06-01T04:54:06.856Z,6.97
2019-06-01T04:56:11.162Z,6.27
2019-06-01T04:58:15.151Z,6.60
2019-06-01T05:00:27.665Z,6.53
2019-06-01T05:02:25.545Z,5.93
2019-06-01T05:04:29.399Z,7.33
2019-06-01T05:06:33.371Z,6.40
2019-06-01T05:08:37.291Z,7.80
2019-06-01T05:10:41.135Z,6.43
2019-06-01T05:12:45.022Z,6.90
2019-06-01T05:14:49.027Z,7.70
2019-06-01T05:16:52.937Z,6.77
2019-06-01T05:18:56.756Z,6.97
2019-06-01T05:21:00.739Z,6.93
2019-06-01T05:23:04.777Z,6.40
2019-06-01T05:25:09.178Z,6.93
2019-06-01T05:27:13.184Z,7.00
2019-06-01T05:29:18.112Z,6.20
2019-06-01T05:31:25.274Z,7.20
2019-06-01T05:33:36.859Z,6.47
2019-06-01T05:35:33.535Z,7.83
2019-06-01T05:37:37.591Z,7.17
2019-06-01T05:39:41.443Z,7.30
2019-06-01T05:41:45.332Z,7.70
2019-06-01T05:43:49.442Z,7.13
2019-06-01T05:45:53.452Z,7.40
2019-06-01T05:47:57.399Z,6.43
2019-06-01T05:50:01.333Z,7.67
2019-06-01T05:52:05.349Z,8.03
2019-06-01T05:54:12.757Z,7.30
2019-06-01T05:56:16.915Z,8.17
2019-06-01T05:58:21.764Z,7.93
2019-06-01T06:00:38.366Z,6.70
2019-06-01T06:02:42.352Z,7.60
2019-06-01T06:04:46.163Z,8.10
2019-06-01T06:06:50.013Z,7.90
2019-06-01T06:08:53.849Z,6.20
2019-06-01T06:10:57.703Z,7.30
2019-06-01T06:13:01.547Z,7.83
2019-06-01T06:15:06.495Z,9.40
2019-06-01T06:17:13.714Z,6.97
2019-06-01T06:19:19.227Z,7.90
2019-06-01T06:21:22.416Z,9.17
2019-06-01T06:23:26.595Z,9.07
2019-06-01T06:25:31.798Z,11.43
2019-06-01T06:27:36.211Z,8.97
2019-06-01T06:29:40.053Z,10.83
2019-06-01T06:31:43.875Z,10.77
2019-06-01T06:33:55.993Z,8.67
2019-06-01T06:35:53.347Z,8.37
2019-06-01T06:37:57.183Z,8.20
2019-06-01T06:40:01.044Z,10.67
2019-06-01T06:42:05.213Z,11.73
2019-06-01T06:44:09.058Z,8.00
2019-06-01T06:46:13.014Z,8.57
2019-06-01T06:48:16.969Z,7.60
2019-06-01T06:50:21.457Z,9.23
2019-06-01T06:52:25.718Z,8.80
2019-06-01T06:54:29.714Z,8.10
2019-06-01T06:56:33.640Z,8.90
2019-06-01T06:58:37.546Z,8.83
2019-06-01T07:00:41.673Z,8.33
2019-06-01T07:02:45.566Z,7.70
2019-06-01T07:04:49.406Z,9.07
2019-06-01T07:06:53.484Z,7.93
2019-06-01T07:08:57.312Z,8.03
2019-06-01T07:11:01.166Z,8.40
2019-06-01T07:13:05.104Z,7.40
2019-06-01T07:15:09.245Z,9.10
2019-06-01T07:17:15.718Z,9.47
2019-06-01T07:19:19.411Z,6.73
2019-06-01T07:21:23.778Z,9.30
2019-06-01T07:23:28.015Z,8.87
2019-06-01T07:25:33.022Z,9.77
2019-06-01T07:27:36.985Z,9.80
2019-06-01T07:29:40.994Z,5.40
2019-06-01T07:31:44.799Z,10.13
2019-06-01T07:33:48.759Z,10.10
2019-06-01T07:35:53.113Z,11.30
2019-06-01T07:37:57.419Z,8.00
2019-06-01T07:40:01.336Z,9.90
2019-06-01T07:42:05.393Z,8.87
2019-06-01T07:44:09.429Z,9.47
2019-06-01T07:46:13.424Z,9.00
2019-06-01T07:48:17.389Z,9.27
2019-06-01T07:50:21.902Z,8.30
2019-06-01T07:52:26.206Z,9.50
2019-06-01T07:54:30.217Z,8.50
2019-06-01T07:56:34.143Z,7.27
2019-06-01T07:58:38.057Z,6.57
2019-06-01T08:00:42.123Z,6.97
2019-06-01T08:02:45.956Z,8.13
2019-06-01T08:04:54.094Z,6.10
2019-06-01T08:06:55.562Z,7.40
2019-06-01T08:08:59.379Z,7.67
2019-06-01T08:11:03.372Z,8.87
2019-06-01T08:13:07.305Z,6.93
2019-06-01T08:15:11.293Z,5.73
2019-06-01T08:17:15.278Z,7.50
2019-06-01T08:19:19.210Z,6.40
2019-06-01T08:21:23.959Z,7.77
2019-06-01T08:23:28.402Z,7.70
2019-06-01T08:25:32.878Z,6.03
2019-06-01T08:27:36.831Z,5.90
2019-06-01T08:29:40.743Z,6.70
2019-06-01T08:31:45.338Z,6.57
2019-06-01T08:33:49.342Z,5.60
2019-06-01T08:35:53.171Z,6.80
2019-06-01T08:37:57.027Z,6.30
2019-06-01T08:40:00.915Z,6.43
2019-06-01T08:42:04.863Z,6.27
2019-06-01T08:44:08.896Z,7.43
2019-06-01T08:46:12.795Z,7.20
2019-06-01T08:48:16.682Z,6.83
2019-06-01T08:50:20.923Z,8.43
2019-06-01T08:52:25.878Z,8.13
2019-06-01T08:54:30.343Z,6.20
2019-06-01T08:56:34.563Z,9.00
2019-06-01T08:58:38.595Z,8.00
2019-06-01T09:00:42.451Z,7.97
2019-06-01T09:02:46.415Z,8.50
2019-06-01T09:04:50.404Z,7.40
2019-06-01T09:06:54.347Z,6.50
2019-06-01T09:08:58.411Z,7.83
2019-06-01T09:11:02.440Z,8.07
2019-06-01T09:13:06.302Z,8.40
2019-06-01T09:15:10.883Z,5.70
2019-06-01T09:17:18.553Z,6.10
2019-06-01T09:19:20.324Z,8.73
2019-06-01T09:21:25.313Z,5.93
2019-06-01T09:23:29.596Z,6.60
2019-06-01T09:25:33.810Z,5.77
2019-06-01T09:27:37.875Z,7.53
2019-06-01T09:29:44.743Z,7.67
2019-06-01T09:31:48.813Z,7.03
2019-06-01T09:33:52.748Z,6.37
2019-06-01T09:35:56.680Z,7.43
2019-06-01T09:38:00.618Z,7.80
2019-06-01T09:40:05.499Z,5.70
2019-06-01T09:42:09.359Z,7.60
2019-06-01T09:44:13.214Z,5.37
2019-06-01T09:46:17.159Z,7.30
2019-06-01T09:48:21.048Z,6.17
2019-06-01T09:50:25.011Z,6.63
2019-06-01T09:52:29.324Z,5.53
2019-06-01T09:54:34.580Z,5.90
2019-06-01T09:56:39.921Z,5.30
2019-06-01T09:58:43.947Z,4.80
2019-06-01T10:00:48.541Z,5.13
2019-06-01T10:02:52.413Z,6.53
2019-06-01T10:04:56.255Z,6.77
2019-06-01T10:07:00.151Z,5.70
2019-06-01T10:09:05.570Z,4.97
2019-06-01T10:11:09.494Z,4.97
2019-06-01T10:13:13.413Z,6.70
2019-06-01T10:15:17.965Z,5.77
2019-06-01T10:17:21.964Z,6.10
2019-06-01T10:19:25.863Z,6.77
2019-06-01T10:21:29.847Z,4.67
2019-06-01T10:23:34.460Z,6.10
2019-06-01T10:25:38.719Z,6.87
2019-06-01T10:27:42.902Z,6.20
2019-06-01T10:29:46.889Z,5.67
2019-06-01T10:31:50.744Z,3.70
2019-06-01T10:33:54.563Z,5.97
2019-06-01T10:35:58.391Z,5.10
2019-06-01T10:38:02.204Z,3.80
2019-06-01T10:40:06.226Z,5.77
2019-06-01T10:42:10.299Z,4.70
2019-06-01T10:44:14.221Z,5.67
2019-06-01T10:46:18.138Z,4.33
2019-06-01T10:48:22.095Z,4.80
2019-06-01T10:50:25.948Z,3.87
2019-06-01T10:52:29.930Z,5.43
2019-06-01T10:54:34.345Z,5.63
2019-06-01T10:56:38.556Z,5.20
2019-06-01T10:58:56.597Z,3.80
2019-06-01T11:00:51.141Z,5.07
2019-06-01T11:02:54.239Z,4.20
2019-06-01T11:04:58.348Z,3.47
2019-06-01T11:07:02.281Z,5.00
2019-06-01T11:09:08.347Z,4.10
2019-06-01T11:11:12.326Z,4.00
2019-06-01T11:13:16.231Z,4.40
2019-06-01T11:15:20.176Z,5.17
2019-06-01T11:17:24.010Z,4.47
2019-06-01T11:19:27.916Z,4.90
2019-06-01T11:21:31.805Z,3.80
2019-06-01T11:23:35.797Z,4.10
2019-06-01T11:25:39.763Z,4.80
2019-06-01T11:27:44.086Z,3.20
2019-06-01T11:29:51.391Z,4.60
2019-06-01T11:31:53.733Z,5.30
2019-06-01T11:33:57.708Z,4.17
2019-06-01T11:36:01.641Z,4.10
2019-06-01T11:38:05.702Z,4.00
2019-06-01T11:40:10.962Z,4.50
2019-06-01T11:42:14.979Z,3.50
2019-06-01T11:44:18.916Z,4.00
2019-06-01T11:46:22.808Z,3.30
2019-06-01T11:48:26.660Z,3.07
2019-06-01T11:50:30.645Z,3.03
2019-06-01T11:52:34.976Z,2.83
2019-06-01T11:54:39.184Z,5.23
2019-06-01T11:56:43.383Z,3.00
2019-06-01T11:58:47.427Z,3.70
2019-06-01T12:00:51.260Z,3.17
2019-06-01T12:02:55.171Z,3.10
2019-06-01T12:04:59.020Z,3.33
2019-06-01T12:07:17.071Z,3.03
2019-06-01T12:09:09.335Z,3.23
2019-06-01T12:11:13.354Z,3.30
2019-06-01T12:13:17.326Z,3.00
2019-06-01T12:15:21.464Z,2.93
2019-06-01T12:17:25.311Z,4.10
2019-06-01T12:19:29.377Z,3.90
2019-06-01T12:21:33.277Z,3.40
2019-06-01T12:23:37.464Z,2.60
2019-06-01T12:25:42.180Z,2.93
2019-06-01T12:27:48.364Z,2.53
2019-06-01T12:29:52.719Z,3.00
2019-06-01T12:31:56.750Z,3.73
2019-06-01T12:34:00.675Z,3.43
2019-06-01T12:36:05.265Z,3.40
2019-06-01T12:38:09.155Z,3.20
2019-06-01T12:40:13.617Z,3.00
2019-06-01T12:42:17.559Z,3.83
2019-06-01T12:44:21.508Z,3.30
2019-06-01T12:46:25.436Z,2.50
2019-06-01T12:48:29.321Z,3.37
2019-06-01T12:50:35.204Z,2.30
2019-06-01T12:52:40.279Z,3.20
2019-06-01T12:54:44.669Z,3.87
2019-06-01T12:56:49.804Z,3.37
2019-06-01T12:58:53.973Z,2.60
2019-06-01T13:01:02.640Z,3.00
2019-06-01T13:03:07.769Z,3.60
2019-06-01T13:05:09.888Z,3.60
2019-06-01T13:07:13.711Z,3.60
2019-06-01T13:09:17.687Z,3.00
2019-06-01T13:11:21.707Z,3.40
2019-06-01T13:13:25.630Z,3.30
2019-06-01T13:15:30.216Z,2.67
2019-06-01T13:17:34.057Z,3.60
2019-06-01T13:19:38.240Z,2.90
2019-06-01T13:21:43.199Z,3.20
2019-06-01T13:23:47.607Z,2.90
2019-06-01T13:25:51.870Z,2.77
2019-06-01T13:27:55.827Z,3.20
2019-06-01T13:29:59.823Z,2.73
2019-06-01T13:32:03.813Z,2.60
2019-06-01T13:34:07.663Z,2.20
2019-06-01T13:36:11.665Z,2.97
2019-06-01T13:38:15.612Z,2.73
2019-06-01T13:40:21.080Z,3.63
2019-06-01T13:42:25.028Z,3.50
2019-06-01T13:44:28.927Z,3.63
2019-06-01T13:46:32.835Z,3.30
2019-06-01T13:48:36.704Z,2.87
2019-06-01T13:50:40.695Z,2.73
2019-06-01T13:52:45.751Z,2.73
2019-06-01T13:54:50.605Z,2.70
2019-06-01T13:56:55.181Z,2.53
2019-06-01T13:58:59.021Z,2.80
2019-06-01T14:01:02.971Z,2.70
2019-06-01T14:03:07.005Z,2.70
2019-06-01T14:05:11.028Z,2.50
2019-06-01T14:07:14.936Z,3.00
2019-06-01T14:09:21.763Z,4.20
2019-06-01T14:11:24.735Z,3.10
2019-06-01T14:13:28.569Z,2.67
2019-06-01T14:15:32.515Z,2.87
2019-06-01T14:17:36.565Z,3.30
2019-06-01T14:19:40.480Z,4.27
2019-06-01T14:21:45.732Z,4.17
2019-06-01T14:23:50.130Z,5.60
2019-06-01T14:25:54.350Z,4.70
2019-06-01T14:27:58.332Z,4.20
2019-06-01T14:30:02.339Z,5.17
2019-06-01T14:32:06.688Z,4.83
2019-06-01T14:34:10.656Z,5.93
2019-06-01T14:36:14.600Z,6.00
2019-06-01T14:38:18.490Z,6.00
2019-06-01T14:40:22.491Z,5.63
2019-06-01T14:42:26.567Z,4.20
2019-06-01T14:44:30.643Z,6.73
2019-06-01T14:46:34.650Z,4.40
2019-06-01T14:48:38.551Z,6.07
2019-06-01T14:50:42.568Z,5.47
2019-06-01T14:52:47.626Z,6.53
2019-06-01T14:54:51.810Z,7.00
2019-06-01T14:56:56.097Z,7.43
2019-06-01T14:59:02.040Z,6.87
2019-06-01T15:01:05.753Z,6.67
2019-06-01T15:03:09.731Z,6.13
2019-06-01T15:05:13.780Z,6.53
2019-06-01T15:07:17.768Z,6.00
2019-06-01T15:09:21.672Z,5.97
2019-06-01T15:11:25.560Z,5.53
2019-06-01T15:13:29.387Z,5.80
2019-06-01T15:15:33.311Z,5.73
2019-06-01T15:17:37.384Z,6.80
2019-06-01T15:19:41.335Z,6.90
2019-06-01T15:21:45.191Z,6.10
2019-06-01T15:23:49.822Z,5.17
2019-06-01T15:25:54.560Z,6.30
2019-06-01T15:27:58.923Z,6.50
2019-06-01T15:30:03.311Z,5.57
2019-06-01T15:32:07.255Z,6.10
2019-06-01T15:34:11.252Z,5.60
2019-06-01T15:36:15.203Z,4.67
2019-06-01T15:38:19.238Z,5.03
2019-06-01T15:40:23.203Z,5.23
2019-06-01T15:42:27.204Z,5.50
2019-06-01T15:44:31.104Z,6.20
2019-06-01T15:46:34.944Z,4.73
2019-06-01T15:48:38.767Z,5.33
2019-06-01T15:50:42.871Z,4.70
2019-06-01T15:52:46.796Z,5.10
2019-06-01T15:54:52.042Z,5.10
2019-06-01T15:56:56.419Z,5.70
2019-06-01T15:59:01.355Z,5.43
2019-06-01T16:01:05.495Z,4.80
2019-06-01T16:03:09.459Z,4.07
2019-06-01T16:05:13.980Z,4.53
2019-06-01T16:07:17.809Z,5.40
2019-06-01T16:09:21.727Z,4.90
2019-06-01T16:11:25.604Z,4.97
2019-06-01T16:13:29.457Z,6.23
2019-06-01T16:15:33.416Z,5.10
2019-06-01T16:17:37.337Z,4.73
2019-06-01T16:19:41.296Z,4.60
2019-06-01T16:21:45.175Z,4.07
2019-06-01T16:23:50.569Z,4.40
2019-06-01T16:26:07.528Z,4.63
2019-06-01T16:28:00.907Z,4.40
2019-06-01T16:30:05.722Z,5.50
2019-06-01T16:32:09.734Z,5.30
2019-06-01T16:34:13.644Z,2.97
2019-06-01T16:36:17.596Z,4.17
2019-06-01T16:38:21.518Z,5.00
2019-06-01T16:40:25.352Z,4.47
2019-06-01T16:42:29.231Z,4.23
2019-06-01T16:44:33.245Z,4.63
2019-06-01T16:46:37.247Z,4.73
2019-06-01T16:48:41.207Z,4.17
2019-06-01T16:50:45.124Z,4.13
2019-06-01T16:52:49.043Z,3.60
2019-06-01T16:54:53.208Z,4.07
2019-06-01T16:56:58.059Z,4.97
2019-06-01T16:59:02.302Z,4.27
2019-06-01T17:01:06.741Z,5.43
2019-06-01T17:03:11.385Z,3.73
2019-06-01T17:05:16.088Z,6.13
2019-06-01T17:07:31.354Z,12.00
2019-06-01T17:09:35.248Z,6.47
2019-06-01T17:11:39.418Z,4.73
2019-06-01T17:13:43.436Z,3.80
2019-06-01T17:15:47.354Z,7.73
2019-06-01T17:17:51.269Z,23.20
2019-06-01T17:19:55.139Z,4.00
2019-06-01T17:21:59.414Z,4.70
2019-06-01T17:24:03.872Z,4.60
2019-06-01T17:26:08.939Z,3.47
2019-06-01T17:28:13.095Z,3.07
2019-06-01T17:30:17.376Z,4.00
2019-06-01T17:32:24.533Z,5.33
2019-06-01T17:34:27.067Z,4.00
2019-06-01T17:36:31.089Z,3.30
2019-06-01T17:38:35.089Z,3.67
2019-06-01T17:40:42.770Z,3.10
2019-06-01T17:42:44.694Z,3.43
2019-06-01T17:44:48.610Z,3.73
2019-06-01T17:46:54.037Z,2.00
2019-06-01T17:48:58.231Z,3.60
2019-06-01T17:51:02.582Z,3.27
2019-06-01T17:53:06.813Z,2.90
2019-06-01T17:55:13.222Z,3.03
2019-06-01T17:57:17.352Z,3.50
2019-06-01T17:59:21.356Z,3.67
2019-06-01T18:01:25.334Z,4.17
2019-06-01T18:03:29.385Z,2.70
2019-06-01T18:05:33.211Z,3.27
2019-06-01T18:07:37.153Z,2.70
2019-06-01T18:09:41.113Z,3.20
2019-06-01T18:11:45.140Z,3.30
2019-06-01T18:13:49.077Z,2.90
2019-06-01T18:15:52.904Z,3.03
2019-06-01T18:17:56.760Z,3.30
2019-06-01T18:20:02.343Z,3.10
2019-06-01T18:22:06.752Z,2.70
2019-06-01T18:24:11.056Z,3.20
2019-06-01T18:26:14.972Z,3.23
2019-06-01T18:28:19.895Z,3.30
2019-06-01T18:30:24.774Z,3.10
2019-06-01T18:32:28.611Z,3.30
2019-06-01T18:34:32.556Z,2.90
2019-06-01T18:36:36.503Z,3.60
2019-06-01T18:38:40.407Z,3.13
2019-06-01T18:40:44.455Z,3.20
2019-06-01T18:42:49.629Z,3.10
2019-06-01T18:44:53.544Z,2.93
2019-06-01T18:46:57.461Z,3.33
2019-06-01T18:49:01.391Z,3.30
2019-06-01T18:51:06.051Z,3.13
2019-06-01T18:53:10.141Z,3.00
2019-06-01T18:55:14.720Z,2.80
2019-06-01T18:57:21.379Z,2.87
2019-06-01T18:59:24.608Z,2.67
2019-06-01T19:01:28.441Z,2.67
2019-06-01T19:03:32.423Z,2.40
2019-06-01T19:05:36.241Z,2.83
2019-06-01T19:07:40.303Z,2.53
2019-06-01T19:09:44.289Z,2.00
2019-06-01T19:11:48.231Z,2.27
2019-06-01T19:13:52.233Z,1.83
2019-06-01T19:15:56.076Z,2.10
2019-06-01T19:18:00.217Z,1.57
2019-06-01T19:20:05.144Z,2.10
2019-06-01T19:22:10.447Z,2.13
2019-06-01T19:24:14.708Z,2.00
2019-06-01T19:26:18.894Z,1.97
2019-06-01T19:28:22.828Z,1.93
2019-06-01T19:30:54.911Z,2.77
2019-06-01T19:32:58.827Z,2.53
2019-06-01T19:35:04.079Z,2.30
2019-06-01T19:37:08.931Z,2.30
2019-06-01T19:39:13.329Z,2.43
2019-06-01T19:41:17.711Z,1.77
2019-06-01T19:43:22.278Z,2.00
2019-06-01T19:45:29.493Z,1.77
2019-06-01T19:47:31.840Z,1.97
2019-06-01T19:49:35.778Z,1.73
2019-06-01T19:51:39.715Z,2.13
2019-06-01T19:53:43.620Z,1.80
2019-06-01T19:55:48.968Z,1.77
2019-06-01T19:57:52.988Z,2.00
2019-06-01T19:59:56.858Z,2.10
2019-06-01T20:02:00.823Z,2.20
2019-06-01T20:04:04.814Z,1.97
2019-06-01T20:06:08.760Z,1.90
2019-06-01T20:08:14.169Z,2.00
2019-06-01T20:10:20.401Z,1.70
2019-06-01T20:12:24.255Z,1.90
2019-06-01T20:14:28.140Z,2.13
2019-06-01T20:16:31.987Z,1.70
2019-06-01T20:18:35.901Z,2.23
2019-06-01T20:20:39.876Z,1.97
2019-06-01T20:22:43.736Z,1.87
2019-06-01T20:24:47.592Z,2.53
2019-06-01T20:26:51.463Z,3.13
2019-06-01T20:28:55.464Z,2.93
2019-06-01T20:30:59.326Z,3.23
2019-06-01T20:33:03.257Z,2.33
2019-06-01T20:35:07.370Z,2.20
2019-06-01T20:37:11.847Z,2.37
2019-06-01T20:39:16.233Z,2.20
2019-06-01T20:41:20.697Z,2.13
2019-06-01T20:43:24.719Z,2.13
2019-06-01T20:45:28.652Z,2.17
2019-06-01T20:47:33.923Z,2.67
2019-06-01T20:49:37.824Z,3.10
2019-06-01T20:51:41.675Z,3.17
2019-06-01T20:53:45.674Z,2.60
2019-06-01T20:55:49.606Z,2.40
2019-06-01T20:57:53.673Z,2.47
2019-06-01T20:59:57.539Z,2.50
2019-06-01T21:02:01.482Z,2.40
2019-06-01T21:04:05.547Z,2.37
2019-06-01T21:06:09.531Z,2.37
2019-06-01T21:08:14.049Z,2.70
2019-06-01T21:10:20.314Z,2.60
2019-06-01T21:12:43.535Z,2.17
2019-06-01T21:14:30.312Z,2.23
2019-06-01T21:16:34.152Z,2.27
2019-06-01T21:18:38.216Z,2.30
2019-06-01T21:20:42.176Z,2.20
2019-06-01T21:22:46.501Z,2.23
2019-06-01T21:24:50.511Z,2.03
2019-06-01T21:26:54.380Z,2.70
2019-06-01T21:28:58.277Z,2.30
2019-06-01T21:31:02.143Z,2.43
2019-06-01T21:33:06.092Z,2.77
2019-06-01T21:35:10.530Z,2.53
2019-06-01T21:37:15.369Z,2.30
2019-06-01T21:39:19.733Z,2.40
2019-06-01T21:41:24.067Z,2.60
2019-06-01T21:43:34.552Z,2.47
2019-06-01T21:45:33.495Z,2.90
2019-06-01T21:47:37.530Z,2.60
2019-06-01T21:49:41.463Z,2.43
2019-06-01T21:51:45.439Z,2.40
2019-06-01T21:53:49.264Z,2.70
2019-06-01T21:55:53.222Z,2.60
2019-06-01T21:57:57.564Z,2.70
2019-06-01T22:00:01.824Z,2.60
2019-06-01T22:02:06.878Z,2.77
2019-06-01T22:04:10.824Z,3.00
2019-06-01T22:06:14.849Z,3.20
2019-06-01T22:08:19.108Z,3.07
2019-06-01T22:10:23.291Z,2.90
2019-06-01T22:12:27.837Z,2.93
2019-06-01T22:14:31.704Z,3.40
2019-06-01T22:16:35.650Z,3.00
2019-06-01T22:18:39.467Z,3.27
2019-06-01T22:20:47.124Z,4.67
2019-06-01T22:22:51.038Z,3.90
2019-06-01T22:24:54.923Z,3.70
2019-06-01T22:26:58.826Z,3.60
2019-06-01T22:29:02.965Z,6.90
2019-06-01T22:31:06.960Z,14.40
2019-06-01T22:33:10.877Z,5.90
2019-06-01T22:35:14.994Z,5.17
2019-06-01T22:37:19.751Z,5.30
2019-06-01T22:39:24.783Z,6.10
2019-06-01T22:41:28.804Z,7.83
2019-06-01T22:43:45.439Z,7.30
2019-06-01T22:45:38.191Z,7.70
2019-06-01T22:47:44.857Z,7.73
2019-06-01T22:49:48.771Z,6.83
2019-06-01T22:51:52.775Z,9.43
2019-06-01T22:53:56.792Z,7.53
2019-06-01T22:56:00.724Z,7.80
2019-06-01T22:58:04.622Z,8.93
2019-06-01T23:00:08.755Z,9.00
2019-06-01T23:02:12.671Z,8.40
2019-06-01T23:04:16.536Z,9.20
2019-06-01T23:06:20.964Z,9.00
2019-06-01T23:08:25.714Z,7.50
2019-06-01T23:10:33.983Z,7.40
2019-06-01T23:12:35.458Z,8.77
2019-06-01T23:14:39.546Z,9.10
2019-06-01T23:16:43.678Z,8.93
2019-06-01T23:18:47.571Z,7.97
2019-06-01T23:20:51.439Z,7.50
2019-06-01T23:22:55.318Z,6.57
2019-06-01T23:24:59.240Z,6.43
2019-06-01T23:27:03.246Z,5.57
2019-06-01T23:29:07.334Z,5.90
2019-06-01T23:31:11.370Z,5.53
2019-06-01T23:33:15.470Z,6.60
2019-06-01T23:35:19.399Z,5.60
2019-06-01T23:37:24.638Z,6.30
2019-06-01T23:39:28.822Z,6.43
2019-06-01T23:41:32.997Z,7.30
2019-06-01T23:43:37.022Z,6.10
2019-06-01T23:45:41.111Z,6.10
2019-06-01T23:47:44.955Z,6.40
2019-06-01T23:49:48.847Z,6.93
2019-06-01T23:51:52.799Z,7.50
2019-06-01T23:53:56.649Z,8.10
2019-06-01T23:56:00.479Z,6.33
2019-06-01T23:58:04.531Z,6.13
